createdAt,value
2022-12-11T00:01:19.238Z,-1.20
2022-12-11T00:03:46.696Z,-1.20
2022-12-11T00:06:15.858Z,-1.20
2022-12-11T00:08:43.341Z,-1.20
2022-12-11T00:11:13.130Z,-1.20
2022-12-11T00:13:39.852Z,-1.20
2022-12-11T00:16:06.915Z,-1.20
2022-12-11T00:18:33.682Z,-1.20
2022-12-11T00:21:02.308Z,-1.20
2022-12-11T00:23:29.243Z,-1.20
2022-12-11T00:25:56.094Z,-1.20
2022-12-11T00:28:23.330Z,-1.20
2022-12-11T00:30:50.488Z,-1.20
2022-12-11T00:33:17.534Z,-1.30
2022-12-11T00:35:48.459Z,-1.20
2022-12-11T00:38:21.499Z,-1.30
2022-12-11T00:40:48.971Z,-1.20
2022-12-11T00:43:16.016Z,-1.20
2022-12-11T00:45:45.158Z,-1.20
2022-12-11T00:48:13.487Z,-1.20
2022-12-11T00:50:41.006Z,-1.20
2022-12-11T00:53:08.333Z,-1.20
2022-12-11T00:55:40.029Z,-1.20
2022-12-11T00:58:07.335Z,-1.20
2022-12-11T01:00:34.208Z,-1.20
2022-12-11T01:03:01.267Z,-1.20
2022-12-11T01:05:28.361Z,-1.20
2022-12-11T01:07:55.085Z,-1.20
2022-12-11T01:10:24.838Z,-1.20
2022-12-11T01:12:57.173Z,-1.20
2022-12-11T01:15:29.873Z,-1.30
2022-12-11T01:17:56.947Z,-1.20
2022-12-11T01:20:25.452Z,-1.20
2022-12-11T01:22:54.394Z,-1.20
2022-12-11T01:25:21.152Z,-1.20
2022-12-11T01:27:51.652Z,-1.20
2022-12-11T01:30:19.781Z,-1.20
2022-12-11T01:32:46.542Z,-1.20
2022-12-11T01:35:13.747Z,-1.20
2022-12-11T01:37:40.726Z,-1.20
2022-12-11T01:40:08.638Z,-1.20
2022-12-11T01:42:35.881Z,-1.10
2022-12-11T01:45:38.930Z,-1.20
2022-12-11T01:48:30.255Z,-1.20
2022-12-11T01:51:01.265Z,-1.20
2022-12-11T01:53:42.834Z,-1.20
2022-12-11T01:56:10.708Z,-1.20
2022-12-11T01:58:53.785Z,-1.20
2022-12-11T02:01:29.613Z,-1.20
2022-12-11T02:03:57.130Z,-1.10
2022-12-11T02:06:35.598Z,-1.10
2022-12-11T02:09:05.035Z,-1.10
2022-12-11T02:11:59.800Z,-1.10
2022-12-11T02:14:44.899Z,-1.10
2022-12-11T02:17:19.567Z,-1.10
2022-12-11T02:20:04.322Z,-1.20
2022-12-11T02:23:01.176Z,-1.10
2022-12-11T02:25:49.652Z,-1.20
2022-12-11T02:28:32.116Z,-1.20
2022-12-11T02:31:29.358Z,-1.20
2022-12-11T02:34:17.104Z,-1.20
2022-12-11T02:36:53.017Z,-1.20
2022-12-11T02:39:22.678Z,-1.20
2022-12-11T02:41:51.428Z,-1.20
2022-12-11T02:44:24.187Z,-1.10
2022-12-11T02:46:52.312Z,-1.10
2022-12-11T02:49:20.455Z,-1.10
2022-12-11T02:51:47.219Z,-1.10
2022-12-11T02:54:23.968Z,-1.10
2022-12-11T02:57:28.620Z,-1.10
2022-12-11T02:59:55.388Z,-1.10
2022-12-11T03:02:22.277Z,-1.10
2022-12-11T03:04:49.702Z,-1.10
2022-12-11T03:07:23.290Z,-1.10
2022-12-11T03:09:50.565Z,-1.10
2022-12-11T03:12:22.001Z,-1.20
2022-12-11T03:14:49.413Z,-1.20
2022-12-11T03:18:01.000Z,-1.20
2022-12-11T03:20:55.509Z,-1.20
2022-12-11T03:23:34.067Z,-1.20
2022-12-11T03:26:11.326Z,-1.20
2022-12-11T03:29:00.539Z,-1.20
2022-12-11T03:31:35.705Z,-1.20
2022-12-11T03:34:09.590Z,-1.20
2022-12-11T03:36:39.071Z,-1.20
2022-12-11T03:39:15.411Z,-1.20
2022-12-11T03:41:43.799Z,-1.20
2022-12-11T03:44:12.290Z,-1.20
2022-12-11T03:46:41.099Z,-1.20
2022-12-11T03:49:21.060Z,-1.20
2022-12-11T03:51:50.228Z,-1.20
2022-12-11T03:54:18.005Z,-1.20
2022-12-11T03:56:46.021Z,-1.20
2022-12-11T03:59:12.955Z,-1.20
2022-12-11T04:01:40.005Z,-1.20
2022-12-11T04:04:06.793Z,-1.30
2022-12-11T04:06:33.555Z,-1.20
2022-12-11T04:09:00.246Z,-1.20
2022-12-11T04:11:36.105Z,-1.20
2022-12-11T04:14:26.708Z,-1.20
2022-12-11T04:16:53.927Z,-1.20
2022-12-11T04:19:39.743Z,-1.20
2022-12-11T04:22:25.283Z,-1.20
2022-12-11T04:24:52.009Z,-1.20
2022-12-11T04:27:39.495Z,-1.20
2022-12-11T04:30:09.529Z,-1.20
2022-12-11T04:32:36.188Z,-1.20
2022-12-11T04:35:03.028Z,-1.10
2022-12-11T04:37:30.270Z,-1.20
2022-12-11T04:39:56.935Z,-1.10
2022-12-11T04:42:23.671Z,-1.10
2022-12-11T04:44:50.737Z,-1.10
2022-12-11T04:47:17.427Z,-1.10
2022-12-11T04:49:44.104Z,-1.10
2022-12-11T04:52:10.823Z,-1.10
2022-12-11T04:54:37.719Z,-1.10
2022-12-11T04:57:04.456Z,-1.10
2022-12-11T04:59:32.623Z,-1.10
2022-12-11T05:01:59.696Z,-1.10
2022-12-11T05:04:30.216Z,-1.10
2022-12-11T05:06:56.936Z,-1.10
2022-12-11T05:09:23.564Z,-1.10
2022-12-11T05:11:50.312Z,-1.20
2022-12-11T05:14:17.047Z,-1.10
2022-12-11T05:16:44.043Z,-1.10
2022-12-11T05:19:11.164Z,-1.10
2022-12-11T05:21:37.843Z,-1.20
2022-12-11T05:24:04.911Z,-1.20
2022-12-11T05:26:31.601Z,-1.10
2022-12-11T05:28:58.266Z,-1.10
2022-12-11T05:31:26.982Z,-1.20
2022-12-11T05:33:54.243Z,-1.20
2022-12-11T05:36:29.601Z,-1.20
2022-12-11T05:38:58.446Z,-1.30
2022-12-11T05:41:27.599Z,-1.30
2022-12-11T05:43:54.493Z,-1.40
2022-12-11T05:46:24.261Z,-1.30
2022-12-11T05:48:53.755Z,-1.30
2022-12-11T05:51:21.255Z,-1.40
2022-12-11T05:53:49.761Z,-1.40
2022-12-11T05:56:22.264Z,-1.50
2022-12-11T05:58:49.790Z,-1.40
2022-12-11T06:01:20.658Z,-1.50
2022-12-11T06:03:47.761Z,-1.50
2022-12-11T06:06:15.085Z,-1.50
2022-12-11T06:08:42.122Z,-1.50
2022-12-11T06:11:09.046Z,-1.50
2022-12-11T06:13:36.811Z,-1.50
2022-12-11T06:16:05.721Z,-1.50
2022-12-11T06:18:36.334Z,-1.60
2022-12-11T06:21:10.375Z,-1.60
2022-12-11T06:23:36.988Z,-1.60
2022-12-11T06:26:04.277Z,-1.50
2022-12-11T06:28:30.908Z,-1.50
2022-12-11T06:31:01.966Z,-1.50
2022-12-11T06:33:29.167Z,-1.60
2022-12-11T06:35:56.768Z,-1.60
2022-12-11T06:38:23.606Z,-1.50
2022-12-11T06:41:00.887Z,-1.50
2022-12-11T06:43:27.557Z,-1.60
2022-12-11T06:45:57.915Z,-1.50
2022-12-11T06:48:27.372Z,-1.60
2022-12-11T06:50:54.014Z,-1.60
2022-12-11T06:53:20.708Z,-1.60
2022-12-11T06:55:47.360Z,-1.60
2022-12-11T06:58:14.085Z,-1.50
2022-12-11T07:00:40.791Z,-1.60
2022-12-11T07:03:07.510Z,-1.50
2022-12-11T07:05:34.681Z,-1.50
2022-12-11T07:08:01.694Z,-1.60
2022-12-11T07:10:28.482Z,-1.60
2022-12-11T07:12:55.504Z,-1.50
2022-12-11T07:15:22.154Z,-1.50
2022-12-11T07:17:48.904Z,-1.50
2022-12-11T07:20:15.627Z,-1.50
2022-12-11T07:22:46.462Z,-1.60
2022-12-11T07:25:14.233Z,-1.60
2022-12-11T07:27:41.620Z,-1.70
2022-12-11T07:30:09.351Z,-1.70
2022-12-11T07:32:36.144Z,-1.70
2022-12-11T07:35:03.040Z,-1.70
2022-12-11T07:37:29.710Z,-1.70
2022-12-11T07:39:56.432Z,-1.60
2022-12-11T07:42:23.183Z,-1.60
2022-12-11T07:44:49.916Z,-1.60
2022-12-11T07:47:16.630Z,-1.70
2022-12-11T07:49:43.271Z,-1.60
2022-12-11T07:52:10.128Z,-1.60
2022-12-11T07:54:36.860Z,-1.60
2022-12-11T07:57:03.717Z,-1.60
2022-12-11T07:59:30.414Z,-1.60
2022-12-11T08:01:57.169Z,-1.60
2022-12-11T08:04:23.872Z,-1.70
2022-12-11T08:06:50.576Z,-1.60
2022-12-11T08:09:21.120Z,-1.60
2022-12-11T08:11:51.809Z,-1.70
2022-12-11T08:14:19.386Z,-1.70
2022-12-11T08:16:46.301Z,-1.70
2022-12-11T08:19:13.629Z,-1.70
2022-12-11T08:21:41.130Z,-1.60
2022-12-11T08:24:09.079Z,-1.60
2022-12-11T08:26:35.983Z,-1.60
2022-12-11T08:29:03.404Z,-1.60
2022-12-11T08:31:30.547Z,-1.60
2022-12-11T08:33:58.092Z,-1.60
2022-12-11T08:36:25.672Z,-1.60
2022-12-11T08:38:53.866Z,-1.60
2022-12-11T08:41:23.521Z,-1.60
2022-12-11T08:43:54.744Z,-1.60
2022-12-11T08:46:26.515Z,-1.50
2022-12-11T08:48:54.426Z,-1.50
2022-12-11T08:51:24.514Z,-1.50
2022-12-11T08:53:51.452Z,-1.50
2022-12-11T08:56:20.206Z,-1.50
2022-12-11T08:58:47.686Z,-1.40
2022-12-11T09:01:23.674Z,-1.50
2022-12-11T09:03:51.696Z,-1.40
2022-12-11T09:06:21.331Z,-1.40
2022-12-11T09:08:52.516Z,-1.40
2022-12-11T09:11:23.655Z,-1.40
2022-12-11T09:13:50.612Z,-1.30
2022-12-11T09:16:19.993Z,-1.30
2022-12-11T09:18:48.994Z,-1.30
2022-12-11T09:21:18.910Z,-1.30
2022-12-11T09:23:45.865Z,-1.30
2022-12-11T09:26:15.150Z,-1.30
2022-12-11T09:28:46.175Z,-1.20
2022-12-11T09:31:19.655Z,-1.20
2022-12-11T09:33:46.860Z,-1.20
2022-12-11T09:36:13.632Z,-1.20
2022-12-11T09:38:40.593Z,-1.20
2022-12-11T09:41:48.011Z,-1.20
2022-12-11T09:44:17.740Z,-1.10
2022-12-11T09:46:45.941Z,-1.10
2022-12-11T09:49:24.563Z,-1.20
2022-12-11T09:52:31.802Z,-1.20
2022-12-11T09:55:02.751Z,-1.20
2022-12-11T09:57:41.608Z,-1.10
2022-12-11T10:00:14.316Z,-1.10
2022-12-11T10:02:43.648Z,-1.10
2022-12-11T10:05:22.400Z,-1.10
2022-12-11T10:08:00.674Z,-1.10
2022-12-11T10:11:12.039Z,-1.00
2022-12-11T10:13:41.231Z,-1.00
2022-12-11T10:16:44.483Z,-0.90
2022-12-11T10:19:24.370Z,-0.90
2022-12-11T10:21:52.480Z,-0.90
2022-12-11T10:25:09.919Z,-0.90
2022-12-11T10:27:33.572Z,-0.90
2022-12-11T10:30:15.795Z,-0.90
2022-12-11T10:32:53.256Z,-0.90
2022-12-11T10:35:32.056Z,-0.80
2022-12-11T10:38:11.783Z,-0.80
2022-12-11T10:40:46.864Z,-0.70
2022-12-11T10:43:13.797Z,-0.80
2022-12-11T10:45:40.512Z,-0.80
2022-12-11T10:48:11.810Z,-0.80
2022-12-11T10:50:38.667Z,-0.80
2022-12-11T10:53:06.004Z,-0.70
2022-12-11T10:55:45.448Z,-0.70
2022-12-11T10:58:18.700Z,-0.70
2022-12-11T11:00:46.376Z,-0.60
2022-12-11T11:03:26.309Z,-0.60
2022-12-11T11:06:05.096Z,-0.60
2022-12-11T11:08:40.726Z,-0.60
2022-12-11T11:11:16.185Z,-0.60
2022-12-11T11:13:42.846Z,-0.50
2022-12-11T11:16:14.818Z,-0.50
2022-12-11T11:18:43.765Z,-0.50
2022-12-11T11:21:19.868Z,-0.50
2022-12-11T11:23:50.608Z,-0.50
2022-12-11T11:26:21.281Z,-0.60
2022-12-11T11:28:52.962Z,-0.50
2022-12-11T11:31:21.674Z,-0.50
2022-12-11T11:34:10.428Z,-0.50
2022-12-11T11:36:37.925Z,-0.40
2022-12-11T11:39:28.461Z,-0.40
2022-12-11T11:42:07.563Z,-0.40
2022-12-11T11:44:42.525Z,-0.50
2022-12-11T11:47:24.289Z,-0.50
2022-12-11T11:50:00.001Z,-0.50
2022-12-11T11:52:34.953Z,-0.50
2022-12-11T11:55:20.267Z,-0.50
2022-12-11T11:58:00.567Z,-0.40
2022-12-11T12:00:33.590Z,-0.40
2022-12-11T12:03:03.055Z,-0.30
2022-12-11T12:05:55.794Z,-0.40
2022-12-11T12:09:02.778Z,-0.40
2022-12-11T12:12:10.848Z,-0.40
2022-12-11T12:14:56.402Z,-0.30
2022-12-11T12:17:55.432Z,-0.30
2022-12-11T12:20:54.774Z,-0.30
2022-12-11T12:23:47.085Z,-0.50
2022-12-11T12:26:25.392Z,-0.50
2022-12-11T12:29:01.324Z,-0.40
2022-12-11T12:31:28.034Z,-0.50
2022-12-11T12:34:12.183Z,-0.40
2022-12-11T12:36:59.348Z,-0.40
2022-12-11T12:39:56.658Z,-0.40
2022-12-11T12:42:44.142Z,-0.50
2022-12-11T12:45:34.434Z,-0.50
2022-12-11T12:48:02.162Z,-0.60
2022-12-11T12:50:43.606Z,-0.60
2022-12-11T12:53:17.992Z,-0.70
2022-12-11T12:55:46.617Z,-0.70
2022-12-11T12:58:25.587Z,-0.80
2022-12-11T13:00:52.496Z,-0.70
2022-12-11T13:03:29.166Z,-0.80
2022-12-11T13:06:01.900Z,-0.80
2022-12-11T13:08:50.343Z,-0.70
2022-12-11T13:11:19.743Z,-0.70
2022-12-11T13:13:55.013Z,-0.70
2022-12-11T13:16:27.387Z,-0.70
2022-12-11T13:18:54.633Z,-0.60
2022-12-11T13:21:38.179Z,-0.60
2022-12-11T13:24:14.712Z,-0.60
2022-12-11T13:26:42.384Z,-0.60
2022-12-11T13:29:34.651Z,-0.60
2022-12-11T13:32:24.605Z,-0.60
2022-12-11T13:34:58.121Z,-0.60
2022-12-11T13:37:33.859Z,-0.60
2022-12-11T13:40:08.903Z,-0.70
2022-12-11T13:42:48.069Z,-0.70
2022-12-11T13:45:23.060Z,-0.70
2022-12-11T13:47:50.359Z,-0.80
2022-12-11T13:50:23.876Z,-0.80
2022-12-11T13:52:58.174Z,-0.80
2022-12-11T13:55:34.178Z,-0.80
2022-12-11T13:58:01.012Z,-0.80
2022-12-11T14:00:32.082Z,-0.80
2022-12-11T14:03:02.467Z,-0.80
2022-12-11T14:05:29.742Z,-0.80
2022-12-11T14:07:58.623Z,-0.90
2022-12-11T14:10:25.455Z,-0.80
2022-12-11T14:13:02.358Z,-0.80
2022-12-11T14:15:31.267Z,-0.80
2022-12-11T14:17:59.599Z,-0.80
2022-12-11T14:20:29.514Z,-0.80
2022-12-11T14:23:21.142Z,-0.80
2022-12-11T14:25:54.569Z,-0.90
2022-12-11T14:28:23.292Z,-0.90
2022-12-11T14:30:52.156Z,-0.90
2022-12-11T14:33:21.652Z,-0.90
2022-12-11T14:35:50.763Z,-0.90
2022-12-11T14:38:22.387Z,-1.00
2022-12-11T14:40:53.813Z,-0.90
2022-12-11T14:43:42.654Z,-1.00
2022-12-11T14:46:18.812Z,-1.00
2022-12-11T14:49:00.638Z,-1.00
2022-12-11T14:51:33.641Z,-1.00
2022-12-11T14:54:01.625Z,-1.00
2022-12-11T14:56:29.981Z,-1.00
2022-12-11T14:59:06.227Z,-1.00
2022-12-11T15:01:37.515Z,-1.00
2022-12-11T15:04:07.710Z,-1.00
2022-12-11T15:06:43.433Z,-1.00
2022-12-11T15:09:43.098Z,-1.00
2022-12-11T15:12:16.296Z,-1.00
2022-12-11T15:14:53.403Z,-1.00
2022-12-11T15:17:21.490Z,-1.00
2022-12-11T15:19:54.878Z,-1.00
2022-12-11T15:22:26.195Z,-1.00
2022-12-11T15:24:54.715Z,-1.00
2022-12-11T15:27:24.320Z,-1.00
2022-12-11T15:29:51.039Z,-1.00
2022-12-11T15:32:19.772Z,-1.00
2022-12-11T15:34:48.043Z,-1.00
2022-12-11T15:37:28.192Z,-1.00
2022-12-11T15:39:56.499Z,-1.00
2022-12-11T15:42:39.924Z,-1.00
2022-12-11T15:45:18.896Z,-1.10
2022-12-11T15:47:46.550Z,-1.00
2022-12-11T15:50:21.633Z,-1.00
2022-12-11T15:52:49.458Z,-1.00
2022-12-11T15:55:17.231Z,-1.10
2022-12-11T15:57:55.740Z,-1.00
2022-12-11T16:00:24.049Z,-1.10
2022-12-11T16:02:52.036Z,-1.10
2022-12-11T16:05:19.244Z,-1.00
2022-12-11T16:07:46.113Z,-1.00
2022-12-11T16:10:18.482Z,-1.00
2022-12-11T16:12:45.755Z,-1.00
2022-12-11T16:15:19.928Z,-1.00
2022-12-11T16:17:49.761Z,-1.00
2022-12-11T16:20:16.568Z,-1.10
2022-12-11T16:22:43.256Z,-1.10
2022-12-11T16:25:10.330Z,-1.10
2022-12-11T16:27:37.241Z,-1.10
2022-12-11T16:30:05.083Z,-1.10
2022-12-11T16:32:31.735Z,-1.00
2022-12-11T16:35:02.336Z,-1.00
2022-12-11T16:37:29.080Z,-1.00
2022-12-11T16:39:55.805Z,-1.10
2022-12-11T16:42:22.590Z,-1.00
2022-12-11T16:44:49.272Z,-1.10
2022-12-11T16:47:16.101Z,-1.00
2022-12-11T16:49:43.327Z,-1.00
2022-12-11T16:52:10.628Z,-1.10
2022-12-11T16:54:37.378Z,-1.00
2022-12-11T16:57:04.218Z,-1.00
2022-12-11T16:59:35.270Z,-1.00
2022-12-11T17:02:03.977Z,-1.00
2022-12-11T17:04:30.609Z,-1.00
2022-12-11T17:06:57.261Z,-1.00
2022-12-11T17:09:23.969Z,-1.00
2022-12-11T17:11:50.596Z,-0.90
2022-12-11T17:14:17.424Z,-1.00
2022-12-11T17:16:44.136Z,-0.90
2022-12-11T17:19:10.800Z,-1.00
2022-12-11T17:21:37.608Z,-1.00
2022-12-11T17:24:04.499Z,-1.00
2022-12-11T17:26:31.731Z,-1.00
2022-12-11T17:28:58.940Z,-1.00
2022-12-11T17:31:26.123Z,-1.00
2022-12-11T17:33:54.032Z,-1.00
2022-12-11T17:36:22.027Z,-1.10
2022-12-11T17:38:50.001Z,-1.00
2022-12-11T17:41:20.715Z,-1.00
2022-12-11T17:43:49.618Z,-1.00
2022-12-11T17:46:16.759Z,-1.00
2022-12-11T17:48:43.528Z,-1.00
2022-12-11T17:51:12.952Z,-1.00
2022-12-11T17:53:40.100Z,-1.00
2022-12-11T17:56:08.521Z,-1.00
2022-12-11T17:58:35.697Z,-1.00
2022-12-11T18:01:07.457Z,-1.00
2022-12-11T18:03:35.168Z,-1.00
2022-12-11T18:06:06.360Z,-1.00
2022-12-11T18:08:33.254Z,-1.10
2022-12-11T18:11:15.618Z,-1.10
2022-12-11T18:13:43.733Z,-1.10
2022-12-11T18:16:24.507Z,-1.10
2022-12-11T18:18:52.244Z,-1.10
2022-12-11T18:21:24.623Z,-1.10
2022-12-11T18:23:51.835Z,-1.10
2022-12-11T18:26:19.801Z,-1.10
2022-12-11T18:28:47.460Z,-1.10
2022-12-11T18:31:14.881Z,-1.10
2022-12-11T18:33:43.696Z,-1.20
2022-12-11T18:36:12.602Z,-1.10
2022-12-11T18:38:39.855Z,-1.20
2022-12-11T18:41:08.637Z,-1.10
2022-12-11T18:43:36.109Z,-1.10
2022-12-11T18:46:21.735Z,-1.10
2022-12-11T18:48:48.960Z,-1.10
2022-12-11T18:51:18.495Z,-1.10
2022-12-11T18:53:45.679Z,-1.10
2022-12-11T18:56:15.517Z,-1.00
2022-12-11T18:58:42.310Z,-1.00
2022-12-11T19:01:18.851Z,-1.10
2022-12-11T19:03:45.932Z,-1.10
2022-12-11T19:06:19.097Z,-1.00
2022-12-11T19:08:46.115Z,-1.00
2022-12-11T19:11:21.666Z,-1.00
2022-12-11T19:13:49.143Z,-1.00
2022-12-11T19:16:19.836Z,-1.00
2022-12-11T19:18:46.794Z,-1.00
2022-12-11T19:21:15.309Z,-1.00
2022-12-11T19:23:43.526Z,-1.00
2022-12-11T19:26:16.138Z,-1.00
2022-12-11T19:28:42.814Z,-1.00
2022-12-11T19:31:12.250Z,-1.00
2022-12-11T19:33:40.251Z,-1.00
2022-12-11T19:36:09.907Z,-1.00
2022-12-11T19:38:37.663Z,-1.00
2022-12-11T19:41:06.828Z,-1.00
2022-12-11T19:43:34.765Z,-1.00
2022-12-11T19:46:05.947Z,-1.00
2022-12-11T19:48:32.925Z,-1.10
2022-12-11T19:51:05.300Z,-1.00
2022-12-11T19:53:32.061Z,-1.10
2022-12-11T19:55:58.720Z,-1.00
2022-12-11T19:58:25.452Z,-1.10
2022-12-11T20:00:52.176Z,-1.10
2022-12-11T20:03:18.961Z,-1.10
2022-12-11T20:05:45.676Z,-1.10
2022-12-11T20:08:43.032Z,-1.10
2022-12-11T20:11:15.867Z,-1.10
2022-12-11T20:13:45.860Z,-1.20
2022-12-11T20:16:13.348Z,-1.20
2022-12-11T20:18:40.184Z,-1.20
2022-12-11T20:21:14.479Z,-1.20
2022-12-11T20:23:41.545Z,-1.20
2022-12-11T20:26:10.888Z,-1.20
2022-12-11T20:28:38.350Z,-1.20
2022-12-11T20:31:14.967Z,-1.20
2022-12-11T20:33:47.027Z,-1.20
2022-12-11T20:36:16.465Z,-1.10
2022-12-11T20:38:43.799Z,-1.10
2022-12-11T20:41:13.601Z,-1.10
2022-12-11T20:43:41.073Z,-1.10
2022-12-11T20:46:10.511Z,-1.10
2022-12-11T20:48:39.020Z,-1.10
2022-12-11T20:51:07.983Z,-1.00
2022-12-11T20:53:35.936Z,-1.00
2022-12-11T20:56:08.760Z,-1.00
2022-12-11T20:58:36.117Z,-0.90
2022-12-11T21:01:02.837Z,-0.90
2022-12-11T21:03:29.677Z,-1.00
2022-12-11T21:05:56.296Z,-1.00
2022-12-11T21:08:23.161Z,-1.00
2022-12-11T21:10:49.863Z,-1.00
2022-12-11T21:13:16.877Z,-1.00
2022-12-11T21:15:44.004Z,-1.00
2022-12-11T21:18:10.745Z,-1.00
2022-12-11T21:20:37.490Z,-1.00
2022-12-11T21:23:04.230Z,-1.00
2022-12-11T21:25:31.006Z,-1.00
2022-12-11T21:27:57.672Z,-0.90
2022-12-11T21:30:24.469Z,-0.90
2022-12-11T21:32:51.131Z,-0.90
2022-12-11T21:35:17.862Z,-1.00
2022-12-11T21:37:44.598Z,-0.90
2022-12-11T21:40:11.664Z,-1.00
2022-12-11T21:42:38.317Z,-0.90
2022-12-11T21:47:52.422Z,-0.90
2022-12-11T21:50:19.489Z,-0.90
2022-12-11T21:52:46.232Z,-0.90
2022-12-11T21:55:13.382Z,-0.90
2022-12-11T21:57:40.295Z,-0.90
2022-12-11T22:00:07.650Z,-0.90
2022-12-11T22:02:40.454Z,-0.90
2022-12-11T22:05:08.138Z,-1.00
2022-12-11T22:07:34.772Z,-1.00
2022-12-11T22:10:01.602Z,-0.90
2022-12-11T22:12:29.091Z,-1.00
2022-12-11T22:14:55.942Z,-0.90
2022-12-11T22:17:22.906Z,-1.00
2022-12-11T22:19:51.970Z,-1.00
2022-12-11T22:22:19.499Z,-0.90
2022-12-11T22:24:46.669Z,-0.90
2022-12-11T22:27:13.444Z,-0.90
2022-12-11T22:29:40.119Z,-0.90
2022-12-11T22:32:06.835Z,-0.90
2022-12-11T22:34:33.654Z,-0.90
2022-12-11T22:37:00.400Z,-0.80
2022-12-11T22:39:27.134Z,-0.80
2022-12-11T22:41:53.879Z,-0.80
2022-12-11T22:44:21.440Z,-0.80
2022-12-11T22:46:50.475Z,-0.90
2022-12-11T22:49:18.765Z,-0.90
2022-12-11T22:51:45.748Z,-0.90
2022-12-11T22:54:12.457Z,-1.00
2022-12-11T22:56:39.140Z,-1.00
2022-12-11T22:59:07.479Z,-1.00
2022-12-11T23:01:34.359Z,-1.00
2022-12-11T23:04:01.045Z,-1.00
2022-12-11T23:06:27.756Z,-1.10
2022-12-11T23:08:58.524Z,-1.00
2022-12-11T23:11:29.334Z,-1.00
2022-12-11T23:13:56.914Z,-1.00
2022-12-11T23:16:26.008Z,-0.90
2022-12-11T23:18:54.238Z,-1.00
2022-12-11T23:21:21.880Z,-1.00
2022-12-11T23:23:48.723Z,-1.00
2022-12-11T23:26:18.739Z,-1.00
2022-12-11T23:28:46.231Z,-1.00
2022-12-11T23:31:13.907Z,-1.00
2022-12-11T23:33:40.603Z,-1.00
2022-12-11T23:36:08.164Z,-1.00
2022-12-11T23:38:35.576Z,-1.00
2022-12-11T23:41:03.319Z,-1.10
2022-12-11T23:43:30.468Z,-1.10
2022-12-11T23:45:57.840Z,-1.00
2022-12-11T23:48:24.544Z,-1.10
2022-12-11T23:50:51.403Z,-0.90
2022-12-11T23:53:18.123Z,-1.00
2022-12-11T23:55:45.468Z,-1.00
2022-12-11T23:58:12.178Z,-1.00
